createdAt,value
2019-02-03T00:01:51.476Z,48.77
2019-02-03T00:04:19.769Z,50.90
2019-02-03T00:06:47.997Z,50.07
2019-02-03T00:09:16.562Z,50.67
2019-02-03T00:11:45.819Z,47.77
2019-02-03T00:14:14.014Z,48.00
2019-02-03T00:16:42.305Z,48.33
2019-02-03T00:19:10.674Z,57.03
2019-02-03T00:21:38.927Z,56.23
2019-02-03T00:24:07.181Z,42.03
2019-02-03T00:26:35.430Z,47.90
2019-02-03T00:29:03.817Z,48.53
2019-02-03T00:31:32.008Z,52.33
2019-02-03T00:34:00.746Z,52.30
2019-02-03T00:36:29.004Z,56.17
2019-02-03T00:38:57.249Z,50.87
2019-02-03T00:41:25.573Z,55.60
2019-02-03T00:43:53.819Z,59.60
2019-02-03T00:46:22.016Z,64.27
2019-02-03T00:48:50.584Z,59.10
2019-02-03T00:51:18.793Z,59.33
2019-02-03T00:53:47.021Z,63.03
2019-02-03T00:56:15.200Z,66.17
2019-02-03T00:58:43.430Z,63.30
2019-02-03T01:01:11.698Z,51.30
2019-02-03T01:03:40.109Z,59.47
2019-02-03T01:06:08.292Z,57.70
2019-02-03T01:08:36.509Z,66.00
2019-02-03T01:11:04.965Z,65.00
2019-02-03T01:13:33.179Z,69.43
2019-02-03T01:16:01.465Z,62.73
2019-02-03T01:18:30.028Z,60.73
2019-02-03T01:20:58.325Z,59.43
2019-02-03T01:23:26.617Z,66.37
2019-02-03T01:25:54.901Z,60.23
2019-02-03T01:28:23.091Z,59.00
2019-02-03T01:30:51.313Z,61.37
2019-02-03T01:33:19.781Z,56.83
2019-02-03T01:35:48.084Z,62.97
2019-02-03T01:38:16.432Z,65.73
2019-02-03T01:40:44.636Z,60.00
2019-02-03T01:43:12.844Z,57.17
2019-02-03T01:45:41.070Z,59.13
2019-02-03T01:48:09.539Z,56.33
2019-02-03T01:50:37.765Z,64.07
2019-02-03T01:53:06.066Z,54.23
2019-02-03T01:55:34.245Z,52.50
2019-02-03T01:58:02.463Z,65.50
2019-02-03T02:00:30.656Z,63.13
2019-02-03T02:02:59.261Z,73.73
2019-02-03T02:05:27.613Z,73.03
2019-02-03T02:07:55.869Z,79.47
2019-02-03T02:10:25.617Z,77.83
2019-02-03T02:12:53.921Z,90.93
2019-02-03T02:15:22.192Z,92.17
2019-02-03T02:17:51.220Z,93.60
2019-02-03T02:20:20.420Z,91.50
2019-02-03T02:22:48.781Z,102.77
2019-02-03T02:25:16.991Z,100.10
2019-02-03T02:27:45.216Z,105.00
2019-02-03T02:30:20.761Z,105.10
2019-02-03T02:32:48.956Z,101.00
2019-02-03T02:35:17.159Z,107.50
2019-02-03T02:37:45.403Z,99.47
2019-02-03T02:40:15.196Z,115.87
2019-02-03T02:42:43.411Z,114.07
2019-02-03T02:45:13.208Z,106.93
2019-02-03T02:47:41.400Z,112.30
2019-02-03T02:50:20.169Z,115.63
2019-02-03T02:52:48.522Z,96.53
2019-02-03T02:55:16.817Z,109.97
2019-02-03T02:57:45.533Z,98.57
2019-02-03T03:00:17.889Z,99.30
2019-02-03T03:02:46.160Z,110.63
2019-02-03T03:05:14.540Z,95.93
2019-02-03T03:07:42.960Z,88.50
2019-02-03T03:10:12.740Z,98.13
2019-02-03T03:12:41.165Z,93.13
2019-02-03T03:15:13.330Z,102.93
2019-02-03T03:17:41.641Z,91.07
2019-02-03T03:20:11.113Z,99.23
2019-02-03T03:22:39.376Z,99.50
2019-02-03T03:25:13.227Z,93.57
2019-02-03T03:27:41.445Z,86.93
2019-02-03T03:30:20.269Z,90.47
2019-02-03T03:32:48.522Z,92.77
2019-02-03T03:35:16.777Z,96.77
2019-02-03T03:37:45.265Z,95.23
2019-02-03T03:40:15.060Z,98.57
2019-02-03T03:42:43.299Z,102.73
2019-02-03T03:45:11.953Z,86.17
2019-02-03T03:47:40.233Z,103.90
2019-02-03T03:50:10.062Z,92.70
2019-02-03T03:52:39.472Z,91.10
2019-02-03T03:55:08.249Z,93.70
2019-02-03T03:57:36.508Z,92.93
2019-02-03T04:00:07.887Z,101.83
2019-02-03T04:02:36.121Z,85.93
2019-02-03T04:05:06.140Z,92.17
2019-02-03T04:07:34.421Z,97.33
2019-02-03T04:10:02.641Z,90.27
2019-02-03T04:12:30.857Z,97.37
2019-02-03T04:14:59.077Z,99.13
2019-02-03T04:17:27.297Z,96.23
2019-02-03T04:19:55.860Z,101.63
2019-02-03T04:22:24.052Z,100.07
2019-02-03T04:24:52.293Z,97.50
2019-02-03T04:27:20.551Z,100.73
2019-02-03T04:29:48.853Z,102.97
2019-02-03T04:32:17.047Z,84.57
2019-02-03T04:34:45.640Z,94.53
2019-02-03T04:37:13.861Z,69.70
2019-02-03T04:39:42.094Z,83.50
2019-02-03T04:42:11.292Z,86.57
2019-02-03T04:44:39.485Z,79.43
2019-02-03T04:47:07.717Z,104.97
2019-02-03T04:49:36.312Z,89.47
2019-02-03T04:52:04.630Z,97.33
2019-02-03T04:54:32.925Z,82.23
2019-02-03T04:57:01.116Z,86.27
2019-02-03T04:59:29.358Z,88.80
2019-02-03T05:01:57.619Z,82.73
2019-02-03T05:04:26.251Z,76.40
2019-02-03T05:06:54.500Z,75.20
2019-02-03T05:09:22.693Z,73.07
2019-02-03T05:11:50.885Z,80.57
2019-02-03T05:14:19.107Z,77.57
2019-02-03T05:16:47.377Z,80.57
2019-02-03T05:19:15.595Z,81.13
2019-02-03T05:21:43.861Z,73.40
2019-02-03T05:24:12.077Z,84.07
2019-02-03T05:26:40.305Z,80.27
2019-02-03T05:29:08.522Z,82.80
2019-02-03T05:31:36.741Z,75.50
2019-02-03T05:34:05.004Z,72.53
2019-02-03T05:36:33.195Z,74.13
2019-02-03T05:39:01.416Z,78.00
2019-02-03T05:41:29.633Z,70.10
2019-02-03T05:43:57.952Z,76.73
2019-02-03T05:46:26.207Z,79.33
2019-02-03T05:48:54.437Z,71.37
2019-02-03T05:51:22.634Z,75.37
2019-02-03T05:53:50.836Z,81.10
2019-02-03T05:56:19.028Z,82.40
2019-02-03T05:58:47.260Z,85.80
2019-02-03T06:01:15.555Z,75.87
2019-02-03T06:03:43.894Z,83.23
2019-02-03T06:06:12.162Z,80.23
2019-02-03T06:08:40.353Z,88.37
2019-02-03T06:11:08.610Z,93.80
2019-02-03T06:13:36.899Z,89.70
2019-02-03T06:16:05.198Z,84.30
2019-02-03T06:18:33.667Z,95.17
2019-02-03T06:21:02.017Z,81.90
2019-02-03T06:23:30.213Z,85.33
2019-02-03T06:25:58.445Z,84.53
2019-02-03T06:28:26.700Z,89.33
2019-02-03T06:30:56.522Z,88.73
2019-02-03T06:33:24.785Z,88.20
2019-02-03T06:35:52.981Z,103.13
2019-02-03T06:38:21.205Z,92.23
2019-02-03T06:40:49.497Z,102.97
2019-02-03T06:43:17.765Z,78.80
2019-02-03T06:45:47.589Z,82.17
2019-02-03T06:48:17.457Z,92.00
2019-02-03T06:50:45.712Z,88.27
2019-02-03T06:53:13.973Z,100.63
2019-02-03T06:55:42.155Z,93.97
2019-02-03T06:58:10.434Z,90.33
2019-02-03T07:00:38.659Z,98.83
2019-02-03T07:03:06.908Z,93.93
2019-02-03T07:05:35.133Z,97.43
2019-02-03T07:08:03.428Z,98.87
2019-02-03T07:10:31.637Z,99.60
2019-02-03T07:12:59.846Z,91.30
2019-02-03T07:15:28.106Z,103.87
2019-02-03T07:17:56.397Z,104.67
2019-02-03T07:20:24.579Z,114.00
2019-02-03T07:22:52.809Z,116.17
2019-02-03T07:25:21.110Z,119.13
2019-02-03T07:27:49.410Z,109.23
2019-02-03T07:30:18.939Z,102.47
2019-02-03T07:32:47.143Z,104.33
2019-02-03T07:35:15.332Z,117.77
2019-02-03T07:37:43.570Z,106.90
2019-02-03T07:40:13.334Z,103.70
2019-02-03T07:42:41.553Z,115.47
2019-02-03T07:45:09.789Z,118.00
2019-02-03T07:47:38.078Z,119.80
2019-02-03T07:50:10.305Z,116.83
2019-02-03T07:52:38.606Z,111.80
2019-02-03T07:55:08.596Z,113.70
2019-02-03T07:57:36.822Z,110.07
2019-02-03T08:00:06.547Z,122.17
2019-02-03T08:02:35.338Z,121.27
2019-02-03T08:05:04.094Z,113.77
2019-02-03T08:07:32.481Z,122.73
2019-02-03T08:10:00.766Z,134.03
2019-02-03T08:12:29.039Z,127.03
2019-02-03T08:14:57.232Z,121.47
2019-02-03T08:17:25.444Z,111.77
2019-02-03T08:19:53.669Z,116.57
2019-02-03T08:22:21.963Z,97.27
2019-02-03T08:24:50.176Z,99.83
2019-02-03T08:27:18.444Z,99.27
2019-02-03T08:29:46.662Z,97.63
2019-02-03T08:32:14.892Z,96.17
2019-02-03T08:34:43.153Z,99.77
2019-02-03T08:37:11.368Z,92.37
2019-02-03T08:39:39.619Z,87.63
2019-02-03T08:42:07.833Z,97.27
2019-02-03T08:44:36.136Z,100.93
2019-02-03T08:47:04.432Z,79.13
2019-02-03T08:49:32.912Z,94.30
2019-02-03T08:52:01.101Z,83.40
2019-02-03T08:54:29.286Z,90.63
2019-02-03T08:56:57.523Z,86.53
2019-02-03T08:59:25.800Z,71.10
2019-02-03T09:01:54.101Z,86.13
2019-02-03T09:04:22.589Z,91.07
2019-02-03T09:06:50.857Z,86.73
2019-02-03T09:09:19.083Z,87.20
2019-02-03T09:11:47.408Z,82.90
2019-02-03T09:14:15.692Z,80.43
2019-02-03T09:16:44.005Z,92.20
2019-02-03T09:19:13.495Z,77.43
2019-02-03T09:21:41.681Z,75.73
2019-02-03T09:24:09.888Z,71.43
2019-02-03T09:26:38.077Z,82.50
2019-02-03T09:29:06.301Z,78.83
2019-02-03T09:31:34.588Z,79.43
2019-02-03T09:34:03.461Z,77.80
2019-02-03T09:36:31.841Z,69.90
2019-02-03T09:39:00.099Z,66.90
2019-02-03T09:41:28.296Z,77.50
2019-02-03T09:43:56.534Z,78.47
2019-02-03T09:46:24.813Z,77.90
2019-02-03T09:48:53.618Z,62.70
2019-02-03T09:51:21.834Z,78.17
2019-02-03T09:53:50.120Z,83.73
2019-02-03T09:56:18.317Z,82.97
2019-02-03T09:58:46.503Z,68.43
2019-02-03T10:01:14.701Z,67.33
2019-02-03T10:03:42.992Z,77.07
2019-02-03T10:06:11.210Z,72.30
2019-02-03T10:08:40.991Z,70.07
2019-02-03T10:11:12.139Z,83.33
2019-02-03T10:13:39.417Z,79.87
2019-02-03T10:16:07.646Z,70.83
2019-02-03T10:18:35.905Z,80.50
2019-02-03T10:21:04.264Z,69.03
2019-02-03T10:23:32.485Z,64.50
2019-02-03T10:26:00.790Z,63.53
2019-02-03T10:28:29.081Z,63.50
2019-02-03T10:30:57.292Z,55.47
2019-02-03T10:33:25.492Z,69.03
2019-02-03T10:35:54.572Z,62.17
2019-02-03T10:38:22.802Z,68.10
2019-02-03T10:40:51.059Z,62.10
2019-02-03T10:43:19.266Z,61.30
2019-02-03T10:45:47.497Z,73.67
2019-02-03T10:48:15.720Z,67.97
2019-02-03T10:50:43.903Z,64.33
2019-02-03T10:53:12.276Z,85.00
2019-02-03T10:55:40.592Z,63.33
2019-02-03T10:58:08.933Z,68.23
2019-02-03T11:00:38.763Z,58.07
2019-02-03T11:03:07.024Z,58.40
2019-02-03T11:05:39.803Z,57.10
2019-02-03T11:08:08.961Z,58.50
2019-02-03T11:10:37.265Z,53.80
2019-02-03T11:13:05.587Z,67.20
2019-02-03T11:15:33.881Z,60.93
2019-02-03T11:18:02.177Z,66.80
2019-02-03T11:20:31.340Z,66.27
2019-02-03T11:22:59.656Z,61.40
2019-02-03T11:25:28.799Z,64.80
2019-02-03T11:27:57.089Z,56.63
2019-02-03T11:30:26.427Z,60.33
2019-02-03T11:33:05.419Z,56.70
2019-02-03T11:35:25.075Z,62.60
2019-02-03T11:37:53.759Z,55.83
2019-02-03T11:40:23.188Z,59.80
2019-02-03T11:42:51.417Z,59.30
2019-02-03T11:45:24.258Z,62.30
2019-02-03T11:47:52.597Z,54.37
2019-02-03T11:50:22.316Z,62.57
2019-02-03T11:52:50.973Z,63.10
2019-02-03T11:55:20.208Z,58.40
2019-02-03T11:57:48.395Z,56.57
2019-02-03T12:00:18.188Z,54.93
2019-02-03T12:02:46.376Z,57.97
2019-02-03T12:05:15.553Z,59.07
2019-02-03T12:07:43.849Z,60.27
2019-02-03T12:10:13.626Z,50.30
2019-02-03T12:12:41.945Z,61.53
2019-02-03T12:15:11.672Z,52.83
2019-02-03T12:17:39.969Z,57.23
2019-02-03T12:20:09.695Z,49.67
2019-02-03T12:22:37.891Z,51.23
2019-02-03T12:25:07.620Z,54.80
2019-02-03T12:27:35.877Z,53.70
2019-02-03T12:30:11.557Z,50.17
2019-02-03T12:32:40.160Z,52.67
2019-02-03T12:35:12.857Z,53.20
2019-02-03T12:37:41.149Z,50.23
2019-02-03T12:40:10.918Z,51.50
2019-02-03T12:42:39.158Z,52.47
2019-02-03T12:45:09.221Z,53.50
2019-02-03T12:47:37.403Z,48.60
2019-02-03T12:50:07.164Z,50.80
2019-02-03T12:52:35.358Z,54.17
2019-02-03T12:55:04.540Z,47.80
2019-02-03T12:57:32.740Z,50.97
2019-02-03T13:00:00.932Z,47.23
2019-02-03T13:02:29.124Z,42.37
2019-02-03T13:04:57.358Z,43.80
2019-02-03T13:07:25.612Z,39.10
2019-02-03T13:09:53.833Z,50.23
2019-02-03T13:12:24.910Z,45.73
2019-02-03T13:14:52.195Z,49.60
2019-02-03T13:17:20.575Z,42.70
2019-02-03T13:19:48.801Z,40.90
2019-02-03T13:22:17.068Z,42.63
2019-02-03T13:24:45.264Z,43.93
2019-02-03T13:27:13.569Z,47.87
2019-02-03T13:29:42.642Z,43.87
2019-02-03T13:32:11.239Z,46.23
2019-02-03T13:34:39.440Z,42.30
2019-02-03T13:37:07.631Z,45.50
2019-02-03T13:39:35.861Z,46.03
2019-02-03T13:42:04.208Z,43.77
2019-02-03T13:44:33.682Z,43.90
2019-02-03T13:47:01.901Z,45.20
2019-02-03T13:49:30.164Z,52.20
2019-02-03T13:51:58.360Z,39.05
2019-02-03T13:54:26.601Z,37.25
2019-02-03T13:56:54.796Z,39.97
2019-02-03T13:59:23.012Z,39.40
2019-02-03T14:01:51.321Z,38.27
2019-02-03T14:04:19.615Z,41.20
2019-02-03T14:06:47.875Z,35.40
2019-02-03T14:24:00.524Z,36.70
2019-02-03T14:26:28.820Z,35.63
2019-02-03T14:28:57.306Z,41.80
2019-02-03T14:31:25.487Z,44.97
2019-02-03T14:33:53.717Z,35.70
2019-02-03T14:36:22.009Z,37.83
2019-02-03T14:38:50.280Z,32.83
2019-02-03T14:41:18.476Z,40.50
2019-02-03T14:43:46.947Z,42.40
2019-02-03T14:46:15.247Z,39.43
2019-02-03T14:48:43.573Z,37.67
2019-02-03T14:51:11.789Z,36.70
2019-02-03T14:53:40.013Z,36.17
2019-02-03T14:56:08.195Z,33.00
2019-02-03T14:58:36.688Z,35.47
2019-02-03T15:01:04.972Z,37.70
2019-02-03T15:03:33.156Z,34.33
2019-02-03T15:06:01.362Z,33.10
2019-02-03T15:08:29.543Z,36.87
2019-02-03T15:10:57.773Z,38.57
2019-02-03T15:13:26.240Z,34.20
2019-02-03T15:15:54.447Z,37.57
2019-02-03T15:18:22.664Z,36.80
2019-02-03T15:20:50.931Z,37.50
2019-02-03T15:23:19.144Z,34.25
2019-02-03T15:25:47.332Z,28.67
2019-02-03T15:28:15.889Z,37.00
2019-02-03T15:30:45.161Z,32.73
2019-02-03T15:33:13.432Z,30.37
2019-02-03T15:35:41.655Z,34.63
2019-02-03T15:38:09.951Z,32.57
2019-02-03T15:40:38.203Z,31.23
2019-02-03T15:43:06.468Z,32.10
2019-02-03T15:45:34.651Z,29.75
2019-02-03T15:48:03.026Z,32.95
2019-02-03T15:50:31.315Z,29.00
2019-02-03T15:52:59.525Z,31.80
2019-02-03T15:55:32.333Z,30.00
2019-02-03T15:58:00.620Z,38.13
2019-02-03T16:00:33.025Z,32.50
2019-02-03T16:03:01.277Z,33.17
2019-02-03T16:05:29.505Z,35.40
2019-02-03T16:07:57.716Z,35.83
2019-02-03T16:10:26.778Z,30.17
2019-02-03T16:12:54.997Z,32.37
2019-02-03T16:15:23.252Z,28.93
2019-02-03T16:17:51.480Z,29.17
2019-02-03T16:20:29.247Z,33.27
2019-02-03T16:22:58.487Z,33.60
2019-02-03T16:25:26.840Z,32.80
2019-02-03T16:27:55.143Z,28.83
2019-02-03T16:30:24.745Z,27.40
2019-02-03T16:32:53.731Z,32.47
2019-02-03T16:35:22.016Z,29.10
2019-02-03T16:37:50.216Z,32.30
2019-02-03T16:40:19.898Z,28.80
2019-02-03T16:42:48.240Z,29.57
2019-02-03T16:45:16.603Z,27.00
2019-02-03T16:47:44.874Z,33.53
2019-02-03T16:50:14.774Z,31.73
2019-02-03T16:52:43.017Z,30.10
2019-02-03T16:55:12.176Z,32.40
2019-02-03T16:57:40.372Z,25.33
2019-02-03T17:00:10.113Z,29.80
2019-02-03T17:02:38.333Z,32.70
2019-02-03T17:05:08.197Z,33.60
2019-02-03T17:07:36.798Z,37.97
2019-02-03T17:10:07.211Z,30.30
2019-02-03T17:12:35.462Z,34.10
2019-02-03T17:15:05.200Z,30.10
2019-02-03T17:17:33.413Z,29.20
2019-02-03T17:20:01.692Z,29.00
2019-02-03T17:22:30.489Z,31.70
2019-02-03T17:24:58.698Z,33.50
2019-02-03T17:27:27.038Z,35.00
2019-02-03T17:29:55.494Z,30.90
2019-02-03T17:32:23.709Z,33.60
2019-02-03T17:34:51.960Z,30.63
2019-02-03T17:37:20.516Z,30.23
2019-02-03T17:39:48.700Z,33.53
2019-02-03T17:42:16.908Z,36.30
2019-02-03T17:44:45.092Z,29.20
2019-02-03T17:47:13.275Z,34.10
2019-02-03T17:49:41.532Z,27.90
2019-02-03T17:52:09.818Z,37.53
2019-02-03T17:54:38.108Z,29.53
2019-02-03T17:57:06.436Z,29.80
2019-02-03T17:59:34.717Z,30.53
2019-02-03T18:02:03.037Z,29.37
2019-02-03T18:04:31.249Z,30.77
2019-02-03T18:06:59.506Z,29.90
2019-02-03T18:09:27.784Z,26.80
2019-02-03T18:11:55.972Z,32.80
2019-02-03T18:14:24.951Z,33.17
2019-02-03T18:16:53.398Z,31.27
2019-02-03T18:19:21.649Z,34.77
2019-02-03T18:21:49.880Z,31.00
2019-02-03T18:24:18.332Z,35.77
2019-02-03T18:26:46.532Z,37.53
2019-02-03T18:29:14.757Z,34.70
2019-02-03T18:31:42.942Z,39.93
2019-02-03T18:34:11.195Z,38.33
2019-02-03T18:36:39.456Z,40.83
2019-02-03T18:39:08.300Z,37.07
2019-02-03T18:41:36.492Z,34.20
2019-02-03T18:44:04.884Z,41.07
2019-02-03T18:46:33.137Z,34.63
2019-02-03T18:49:01.474Z,34.53
2019-02-03T18:51:29.755Z,36.57
2019-02-03T18:53:58.407Z,37.10
2019-02-03T18:56:26.642Z,32.00
2019-02-03T18:58:54.895Z,36.13
2019-02-03T19:01:23.105Z,41.57
2019-02-03T19:03:51.292Z,36.87
2019-02-03T19:06:19.520Z,35.37
2019-02-03T19:08:48.183Z,37.07
2019-02-03T19:11:16.369Z,36.20
2019-02-03T19:13:44.571Z,41.67
2019-02-03T19:16:12.764Z,37.30
2019-02-03T19:18:41.058Z,34.77
2019-02-03T19:21:09.318Z,37.23
2019-02-03T19:23:37.624Z,34.00
2019-02-03T19:26:05.910Z,33.40
2019-02-03T19:28:34.212Z,40.10
2019-02-03T19:31:02.497Z,33.50
2019-02-03T19:33:30.732Z,35.67
2019-02-03T19:35:58.945Z,35.80
2019-02-03T19:38:27.133Z,34.80
2019-02-03T19:40:55.502Z,37.63
2019-02-03T19:43:25.129Z,37.27
2019-02-03T19:45:53.634Z,36.20
2019-02-03T19:48:21.963Z,36.57
2019-02-03T19:50:50.177Z,30.87
2019-02-03T19:53:18.481Z,37.90
2019-02-03T19:55:46.698Z,36.80
2019-02-03T19:58:14.964Z,32.73
2019-02-03T20:00:44.336Z,33.67
2019-02-03T20:03:12.685Z,29.60
2019-02-03T20:05:42.977Z,29.03
2019-02-03T20:08:11.001Z,31.87
2019-02-03T20:10:39.286Z,28.40
2019-02-03T20:13:07.552Z,31.20
2019-02-03T20:15:35.770Z,25.60
2019-02-03T20:18:04.503Z,28.47
2019-02-03T20:20:33.781Z,34.03
2019-02-03T20:23:02.036Z,30.27
2019-02-03T20:25:30.734Z,24.07
2019-02-03T20:27:59.253Z,26.53
2019-02-03T20:30:37.969Z,27.80
2019-02-03T20:32:58.063Z,29.23
2019-02-03T20:35:27.924Z,27.67
2019-02-03T20:37:56.123Z,29.63
2019-02-03T20:40:25.885Z,31.17
2019-02-03T20:42:54.237Z,31.70
2019-02-03T20:45:22.591Z,24.07
2019-02-03T20:47:50.818Z,26.27
2019-02-03T20:50:22.185Z,22.90
2019-02-03T20:52:50.382Z,22.77
2019-02-03T20:55:19.437Z,27.40
2019-02-03T20:57:47.657Z,23.17
2019-02-03T21:00:17.491Z,21.57
2019-02-03T21:02:45.793Z,23.90
2019-02-03T21:05:14.002Z,23.70
2019-02-03T21:07:42.429Z,18.30
2019-02-03T21:10:12.293Z,20.97
2019-02-03T21:12:40.498Z,19.60
2019-02-03T21:15:10.449Z,20.87
2019-02-03T21:17:39.804Z,19.10
2019-02-03T21:20:09.625Z,23.93
2019-02-03T21:22:38.044Z,24.43
2019-02-03T21:25:06.304Z,18.00
2019-02-03T21:27:34.536Z,20.00
2019-02-03T21:30:03.773Z,19.60
2019-02-03T21:32:31.949Z,22.70
2019-02-03T21:35:00.473Z,21.90
2019-02-03T21:37:28.855Z,19.53
2019-02-03T21:39:57.125Z,21.77
2019-02-03T21:42:25.326Z,20.53
2019-02-03T21:44:53.545Z,18.70
2019-02-03T21:47:21.820Z,15.50
2019-02-03T21:49:50.011Z,19.10
2019-02-03T21:52:18.201Z,21.37
2019-02-03T21:54:46.585Z,22.70
2019-02-03T21:57:14.790Z,17.27
2019-02-03T21:59:42.956Z,18.40
2019-02-03T22:02:11.349Z,17.80
2019-02-03T22:04:39.529Z,18.23
2019-02-03T22:07:07.733Z,21.30
2019-02-03T22:09:36.248Z,16.07
2019-02-03T22:12:04.587Z,14.63
2019-02-03T22:14:32.786Z,19.77
2019-02-03T22:17:00.992Z,18.73
2019-02-03T22:19:29.176Z,18.60
2019-02-03T22:21:57.353Z,18.33
2019-02-03T22:24:25.957Z,21.03
2019-02-03T22:26:54.188Z,23.23
2019-02-03T22:29:22.418Z,17.10
2019-02-03T22:31:50.706Z,16.80
2019-02-03T22:34:18.985Z,19.10
2019-02-03T22:36:47.211Z,16.30
2019-02-03T22:39:15.761Z,15.40
2019-02-03T22:41:46.822Z,19.23
2019-02-03T22:44:13.848Z,18.03
2019-02-03T22:46:42.040Z,19.33
2019-02-03T22:49:10.217Z,16.87
2019-02-03T22:51:38.472Z,20.23
2019-02-03T22:54:07.126Z,15.23
2019-02-03T22:56:35.304Z,17.10
2019-02-03T22:59:03.866Z,19.33
2019-02-03T23:01:32.217Z,17.53
2019-02-03T23:04:00.587Z,18.95
2019-02-03T23:06:28.831Z,15.73
2019-02-03T23:08:57.417Z,15.43
2019-02-03T23:11:25.727Z,16.40
2019-02-03T23:13:53.992Z,17.67
2019-02-03T23:16:22.197Z,15.57
2019-02-03T23:18:50.478Z,15.47
2019-02-03T23:21:18.656Z,15.33
2019-02-03T23:23:48.036Z,23.50
2019-02-03T23:26:16.324Z,19.77
2019-02-03T23:28:44.565Z,14.17
2019-02-03T23:31:12.852Z,13.57
2019-02-03T23:33:41.031Z,18.93
2019-02-03T23:36:09.322Z,16.50
2019-02-03T23:38:37.572Z,21.90
2019-02-03T23:41:05.792Z,12.90
2019-02-03T23:43:34.066Z,18.20
2019-02-03T23:46:02.289Z,14.40
2019-02-03T23:48:30.475Z,15.73
2019-02-03T23:50:58.679Z,19.33
2019-02-03T23:53:26.868Z,16.87
2019-02-03T23:55:55.164Z,18.47
2019-02-03T23:58:23.344Z,12.73
